Time;durP1;ratioP1;P1;durP2;ratioP2;P2;SDS_P1;SDS_P2;PMS_P1;PMS_P2;Temp;Humidity;BMP_temperature;BMP_pressure;BME280_temperature;BME280_humidity;BME280_pressure;Samples;Min_cycle;Max_cycle;Signal;HPM_P1;HPM_P2
2021/10/06 00:02:28;;;;;;;10.60;6.70;;;;;;;13.31;95.81;101363.56;6390708;27;20182;-72
2021/10/06 00:05:33;;;;;;;9.32;7.43;;;;;;;13.37;95.03;101348.13;6391009;27;20188;-72
2021/10/06 00:08:37;;;;;;;8.65;6.00;;;;;;;13.29;95.93;101341.03;6391158;27;20182;-72
2021/10/06 00:11:43;;;;;;;8.65;6.30;;;;;;;13.24;96.90;101329.06;6390013;27;20181;-72
2021/10/06 00:14:47;;;;;;;12.10;6.47;;;;;;;13.27;96.38;101334.94;6391006;27;20182;-72
2021/10/06 00:18:17;;;;;;;17.75;6.75;;;;;;;13.34;94.48;101329.38;6390350;27;20209;-72
2021/10/06 00:21:21;;;;;;;9.75;6.18;;;;;;;13.32;94.50;101323.28;6391092;27;20213;-73
2021/10/06 00:24:25;;;;;;;13.77;6.43;;;;;;;13.48;94.05;101322.75;6391091;27;20182;-72
2021/10/06 00:27:31;;;;;;;13.73;6.38;;;;;;;13.52;92.66;101327.56;6390339;27;20216;-72
2021/10/06 00:30:35;;;;;;;9.68;6.40;;;;;;;13.46;94.01;101314.72;6371908;27;20366;-72
2021/10/06 00:33:40;;;;;;;11.40;6.70;;;;;;;13.48;93.73;101309.84;6390692;27;20188;-72
2021/10/06 00:36:44;;;;;;;9.48;6.53;;;;;;;13.47;94.99;101308.19;6390629;27;20205;-72
2021/10/06 00:39:48;;;;;;;9.32;6.47;;;;;;;13.44;94.27;101308.63;6388782;27;20243;-72
2021/10/06 00:42:53;;;;;;;12.98;6.80;;;;;;;13.45;93.38;101282.91;6390670;27;20181;-72
2021/10/06 00:45:58;;;;;;;7.88;6.32;;;;;;;13.38;94.80;101293.09;6390509;27;20213;-72
2021/10/06 00:49:02;;;;;;;8.63;6.28;;;;;;;13.54;91.28;101292.53;6390480;27;20181;-72
2021/10/06 00:52:06;;;;;;;26.83;7.20;;;;;;;13.54;91.88;101276.06;6388956;27;20234;-72
2021/10/06 00:55:13;;;;;;;9.77;6.63;;;;;;;13.49;93.01;101266.84;6389980;27;20181;-72
2021/10/06 00:58:19;;;;;;;19.58;6.88;;;;;;;13.50;92.32;101274.84;6388814;27;20394;-72
2021/10/06 01:01:23;;;;;;;13.93;7.18;;;;;;;13.52;92.83;101256.28;6389982;27;20226;-72
2021/10/06 01:04:28;;;;;;;13.77;7.15;;;;;;;13.54;92.33;101259.63;6388954;27;20223;-72
2021/10/06 01:07:34;;;;;;;9.15;6.40;;;;;;;13.50;91.94;101269.38;6388634;27;20384;-72
2021/10/06 01:10:38;;;;;;;12.07;7.05;;;;;;;13.54;90.76;101256.03;6388559;27;20370;-72
2021/10/06 01:13:43;;;;;;;13.50;7.07;;;;;;;13.57;90.48;101241.88;6389332;27;20246;-72
2021/10/06 01:16:48;;;;;;;15.27;7.10;;;;;;;13.44;91.93;101259.31;6389686;27;20256;-72
2021/10/06 01:19:52;;;;;;;17.02;6.97;;;;;;;13.54;89.83;101237.69;6389397;27;20219;-72
2021/10/06 01:22:57;;;;;;;11.10;7.10;;;;;;;13.50;91.37;101252.94;6388632;27;20181;-72
2021/10/06 01:26:02;;;;;;;10.95;7.28;;;;;;;13.51;91.07;101240.88;6389611;27;20181;-72
2021/10/06 01:29:06;;;;;;;9.68;6.57;;;;;;;13.53;91.03;101241.47;6389461;27;20213;-72
2021/10/06 01:32:12;;;;;;;15.35;7.30;;;;;;;13.54;89.74;101229.47;6388070;27;20284;-72
2021/10/06 01:35:17;;;;;;;14.70;7.47;;;;;;;13.56;90.32;101230.06;6388734;27;20189;-73
2021/10/06 01:38:22;;;;;;;13.27;7.10;;;;;;;13.70;88.58;101215.16;6385992;27;20256;-72
2021/10/06 01:41:32;;;;;;;18.77;7.25;;;;;;;13.57;89.51;101226.28;6363679;28;20182;-72
2021/10/06 01:44:36;;;;;;;10.88;7.53;;;;;;;13.54;90.50;101231.38;6363548;28;20244;-72
2021/10/06 01:47:40;;;;;;;18.58;6.88;;;;;;;13.60;89.38;101220.34;6363406;28;20255;-72
2021/10/06 01:50:45;;;;;;;18.02;7.60;;;;;;;13.61;89.39;101227.47;6362904;28;20197;-72
2021/10/06 01:53:51;;;;;;;14.40;7.25;;;;;;;13.64;87.36;101216.06;6362781;28;20268;-72
2021/10/06 01:56:55;;;;;;;14.65;7.10;;;;;;;13.79;86.72;101219.25;6362329;28;20216;-72
2021/10/06 01:59:59;;;;;;;16.88;7.35;;;;;;;13.75;87.21;101212.56;6363317;28;20221;-72
2021/10/06 02:03:04;;;;;;;14.32;7.10;;;;;;;13.75;87.16;101206.25;6362983;28;20182;-72
2021/10/06 02:06:09;;;;;;;10.10;6.93;;;;;;;13.62;89.90;101207.25;6362663;28;20189;-72
2021/10/06 02:09:15;;;;;;;15.10;7.35;;;;;;;13.71;89.22;101203.13;6362202;28;20203;-72
2021/10/06 02:12:19;;;;;;;11.52;7.32;;;;;;;13.68;89.81;101198.13;6362738;28;20183;-73
2021/10/06 02:15:23;;;;;;;12.77;7.18;;;;;;;13.71;88.20;101205.84;6361698;28;20490;-72
2021/10/06 02:18:28;;;;;;;17.20;7.60;;;;;;;13.73;87.46;101198.25;6362909;28;20209;-72
2021/10/06 02:21:32;;;;;;;10.88;6.57;;;;;;;13.73;87.58;101192.78;6361744;28;20488;-72
2021/10/06 02:24:37;;;;;;;12.77;7.40;;;;;;;13.72;87.46;101193.84;6361740;28;20266;-72
2021/10/06 02:27:42;;;;;;;19.80;7.65;;;;;;;13.78;86.34;101183.84;6362551;28;20187;-72
2021/10/06 02:30:46;;;;;;;11.80;7.03;;;;;;;13.73;89.67;101181.81;6362939;28;20182;-72
2021/10/06 02:33:50;;;;;;;21.77;8.02;;;;;;;13.73;86.70;101170.84;6362510;28;20261;-72
2021/10/06 02:36:54;;;;;;;11.10;7.03;;;;;;;13.82;85.97;101163.97;6358492;28;20198;-72
2021/10/06 02:40:00;;;;;;;17.27;7.55;;;;;;;13.82;87.26;101169.44;6357020;28;20315;-72
2021/10/06 02:43:04;;;;;;;12.23;7.10;;;;;;;13.80;86.69;101171.59;6362435;28;20207;-72
2021/10/06 02:46:09;;;;;;;14.77;6.85;;;;;;;13.82;85.94;101171.34;6362424;28;20182;-72
2021/10/06 02:49:13;;;;;;;17.17;7.03;;;;;;;13.81;86.90;101184.22;6362737;28;20218;-72
2021/10/06 02:52:18;;;;;;;14.48;7.03;;;;;;;13.89;85.96;101185.00;6362328;28;20189;-72
2021/10/06 02:55:23;;;;;;;13.25;7.78;;;;;;;13.91;84.52;101169.97;6361612;28;20214;-73
2021/10/06 02:58:28;;;;;;;15.02;7.28;;;;;;;13.79;87.33;101180.88;6361016;28;20216;-72
2021/10/06 03:01:32;;;;;;;20.92;7.38;;;;;;;13.84;86.62;101165.66;6362584;28;20225;-72
2021/10/06 03:04:36;;;;;;;14.38;7.10;;;;;;;13.86;86.44;101179.97;6366421;28;20190;-72
2021/10/06 03:07:41;;;;;;;18.85;7.07;;;;;;;13.93;85.21;101177.97;6366997;28;20266;-72
2021/10/06 03:10:47;;;;;;;16.15;6.72;;;;;;;13.97;86.14;101176.44;6367306;28;20204;-72
2021/10/06 03:13:51;;;;;;;13.45;6.35;;;;;;;13.89;85.44;101168.53;6366790;28;20182;-72
2021/10/06 03:16:55;;;;;;;13.75;6.70;;;;;;;14.03;84.96;101179.09;6365817;28;20214;-72
2021/10/06 03:20:00;;;;;;;16.67;7.10;;;;;;;14.05;84.04;101181.59;6367000;28;20217;-72
2021/10/06 03:23:05;;;;;;;23.65;7.45;;;;;;;14.01;85.20;101191.38;6365649;28;20227;-72
2021/10/06 03:26:11;;;;;;;17.33;6.78;;;;;;;14.02;84.55;101184.81;6367014;28;20189;-72
2021/10/06 03:29:15;;;;;;;15.98;6.93;;;;;;;14.03;85.29;101181.00;6366744;28;20190;-72
2021/10/06 03:32:20;;;;;;;9.38;7.07;;;;;;;14.03;84.29;101183.75;6365400;28;20465;-72
2021/10/06 03:35:24;;;;;;;16.45;7.20;;;;;;;14.15;84.13;101173.69;6366011;28;20238;-72
2021/10/06 03:38:28;;;;;;;17.73;6.88;;;;;;;14.01;84.97;101177.66;6357092;28;20348;-73
2021/10/06 03:41:33;;;;;;;13.55;7.40;;;;;;;13.90;87.08;101165.56;6365166;28;20473;-72
2021/10/06 03:44:38;;;;;;;23.88;7.70;;;;;;;14.10;84.39;101165.28;6366492;28;20228;-72
2021/10/06 03:47:43;;;;;;;25.02;8.07;;;;;;;14.03;83.67;101178.25;6366516;28;20249;-72
2021/10/06 03:50:47;;;;;;;21.95;7.85;;;;;;;14.06;85.02;101166.81;6364959;28;20218;-72
2021/10/06 03:53:51;;;;;;;20.20;6.88;;;;;;;14.07;84.37;101176.75;6366366;28;20248;-72
2021/10/06 03:56:56;;;;;;;16.30;7.00;;;;;;;14.19;83.74;101169.38;6365735;28;20182;-72
2021/10/06 04:00:00;;;;;;;16.98;7.40;;;;;;;14.02;85.32;101162.88;6366111;28;20282;-72
2021/10/06 04:03:11;;;;;;;18.48;7.65;;;;;;;14.07;83.83;101171.25;6365722;28;20218;-72
2021/10/06 04:06:17;;;;;;;13.75;6.80;;;;;;;14.23;83.11;101173.31;6364582;28;20531;-72
2021/10/06 04:09:21;;;;;;;13.75;7.20;;;;;;;14.13;84.24;101170.31;6364595;28;20451;-72
2021/10/06 04:12:27;;;;;;;14.75;7.28;;;;;;;14.08;85.38;101178.41;6364535;28;20183;-72
2021/10/06 04:15:31;;;;;;;18.92;6.97;;;;;;;14.10;84.77;101176.25;6363236;28;20186;-72
2021/10/06 04:18:35;;;;;;;22.67;7.72;;;;;;;14.15;84.50;101184.66;6364216;28;20232;-72
2021/10/06 04:21:39;;;;;;;18.75;7.85;;;;;;;14.04;86.46;101160.72;6364222;28;20467;-72
2021/10/06 04:24:44;;;;;;;16.42;7.40;;;;;;;14.05;86.66;101178.84;6365477;28;20265;-72
2021/10/06 04:27:50;;;;;;;20.27;7.57;;;;;;;13.99;86.59;101168.81;6364037;28;20182;-72
2021/10/06 04:30:54;;;;;;;18.30;7.68;;;;;;;14.03;85.93;101167.28;6365221;28;20189;-72
2021/10/06 04:33:58;;;;;;;17.67;7.03;;;;;;;14.07;85.83;101160.28;6365299;28;20221;-72
2021/10/06 04:37:02;;;;;;;18.25;7.40;;;;;;;13.99;86.67;101177.06;6365174;28;20264;-73
2021/10/06 04:40:08;;;;;;;16.65;7.72;;;;;;;13.98;87.11;101180.84;6364164;28;20448;-72
2021/10/06 04:43:14;;;;;;;12.15;7.10;;;;;;;13.97;88.51;101177.28;6363618;28;20466;-72
2021/10/06 04:46:19;;;;;;;20.23;8.50;;;;;;;13.82;90.40;101174.94;6365138;28;20194;-72
2021/10/06 04:49:23;;;;;;;24.48;7.57;;;;;;;13.92;90.90;101190.84;6363662;28;20383;-72
2021/10/06 04:52:27;;;;;;;16.45;8.05;;;;;;;13.98;90.74;101195.41;6364471;28;20189;-72
2021/10/06 04:55:31;;;;;;;17.92;8.68;;;;;;;13.91;92.61;101186.44;6338377;28;20183;-72
2021/10/06 04:58:36;;;;;;;18.23;8.18;;;;;;;13.76;93.67;101197.78;6364491;28;20182;-72
2021/10/06 05:01:41;;;;;;;17.30;8.57;;;;;;;13.74;95.17;101199.91;6363618;28;20213;-72
2021/10/06 05:04:45;;;;;;;13.70;8.05;;;;;;;13.70;95.33;101187.75;6363075;28;20198;-72
2021/10/06 05:07:49;;;;;;;19.88;8.18;;;;;;;13.66;96.63;101189.25;6363273;28;20267;-72
2021/10/06 05:10:53;;;;;;;19.52;7.72;;;;;;;13.74;95.64;101194.44;6364243;28;20255;-72
2021/10/06 05:13:59;;;;;;;21.63;8.52;;;;;;;13.81;95.21;101192.44;6364226;28;20190;-72
2021/10/06 05:17:03;;;;;;;17.02;8.60;;;;;;;13.62;97.22;101190.78;6363060;28;20182;-71
2021/10/06 05:20:10;;;;;;;19.73;8.52;;;;;;;13.63;97.70;101197.97;6363174;28;20210;-71
2021/10/06 05:23:15;;;;;;;23.38;9.30;;;;;;;13.64;98.27;101194.13;6363838;28;20186;-72
2021/10/06 05:26:19;;;;;;;18.20;9.32;;;;;;;13.63;98.74;101188.91;6362147;28;20477;-71
2021/10/06 05:29:24;;;;;;;16.25;8.30;;;;;;;13.72;96.46;101190.25;6362460;28;20186;-72
2021/10/06 05:32:28;;;;;;;27.88;9.02;;;;;;;13.76;96.98;101191.47;6362353;28;20395;-72
2021/10/06 05:35:32;;;;;;;14.98;8.45;;;;;;;13.68;97.56;101184.41;6363721;28;20189;-72
2021/10/06 05:38:36;;;;;;;25.50;8.77;;;;;;;13.51;99.17;101193.44;6362318;28;20406;-71
2021/10/06 05:41:41;;;;;;;11.50;8.02;;;;;;;13.52;98.84;101185.00;6363137;28;20209;-71
2021/10/06 05:44:47;;;;;;;14.75;8.70;;;;;;;13.48;100.00;101188.44;6362323;28;20264;-71
2021/10/06 05:47:51;;;;;;;25.13;8.57;;;;;;;13.45;100.00;101195.22;6362780;28;20214;-71
2021/10/06 05:50:55;;;;;;;19.98;8.90;;;;;;;13.37;100.00;101194.66;6363234;28;20186;-71
2021/10/06 05:54:00;;;;;;;21.92;8.73;;;;;;;13.44;100.00;101187.19;6362645;28;20214;-71
2021/10/06 05:57:04;;;;;;;16.70;8.82;;;;;;;13.51;100.00;101193.44;6362967;28;20189;-71
2021/10/06 06:00:14;;;;;;;14.40;8.02;;;;;;;13.42;100.00;101195.66;6361705;28;20514;-71
2021/10/06 06:03:20;;;;;;;18.05;8.77;;;;;;;13.39;100.00;101185.13;6361708;28;20190;-71
2021/10/06 06:06:24;;;;;;;21.13;9.00;;;;;;;13.45;100.00;101188.88;6362868;28;20189;-71
2021/10/06 06:09:28;;;;;;;20.48;9.00;;;;;;;13.42;100.00;101195.66;6362799;28;20186;-71
2021/10/06 06:12:33;;;;;;;15.57;8.73;;;;;;;13.57;100.00;101181.56;6361512;28;20274;-72
2021/10/06 06:15:38;;;;;;;19.17;9.00;;;;;;;13.48;100.00;101194.72;6361602;28;20182;-72
2021/10/06 06:18:42;;;;;;;19.05;8.55;;;;;;;13.56;100.00;101202.66;6362187;28;20182;-71
2021/10/06 06:21:47;;;;;;;18.85;9.35;;;;;;;13.54;100.00;101199.31;6362726;28;20214;-71
2021/10/06 06:24:51;;;;;;;15.23;8.35;;;;;;;13.47;100.00;101209.53;6361340;28;20470;-71
2021/10/06 06:27:55;;;;;;;16.52;8.50;;;;;;;13.41;100.00;101215.91;6361624;28;20186;-71
2021/10/06 06:31:00;;;;;;;16.58;8.73;;;;;;;13.25;100.00;101215.66;6362671;28;20186;-72
2021/10/06 06:34:04;;;;;;;15.88;8.30;;;;;;;13.33;100.00;101218.09;6362284;28;20280;-72
2021/10/06 06:37:09;;;;;;;16.50;9.00;;;;;;;13.28;100.00;101224.25;6363279;28;20198;-72
2021/10/06 06:40:14;;;;;;;11.75;8.55;;;;;;;13.31;100.00;101225.69;6367388;28;20300;-72
2021/10/06 06:43:18;;;;;;;13.05;8.60;;;;;;;13.48;100.00;101237.78;6366426;28;20407;-72
2021/10/06 06:46:24;;;;;;;14.75;8.45;;;;;;;13.45;100.00;101228.09;6366922;28;20229;-72
2021/10/06 06:49:28;;;;;;;19.52;8.35;;;;;;;13.33;100.00;101229.88;6367557;28;20182;-72
2021/10/06 06:52:32;;;;;;;15.43;8.20;;;;;;;13.47;100.00;101227.88;6366211;28;20182;-72
2021/10/06 06:55:37;;;;;;;16.70;7.97;;;;;;;13.34;100.00;101231.56;6366028;28;20189;-72
2021/10/06 06:58:41;;;;;;;12.07;7.15;;;;;;;13.38;100.00;101232.78;6367333;28;20186;-72
2021/10/06 07:01:46;;;;;;;13.52;7.82;;;;;;;13.47;100.00;101230.59;6367340;28;20282;-71
2021/10/06 07:04:50;;;;;;;13.43;7.38;;;;;;;13.41;100.00;101237.81;6365906;28;20554;-72
2021/10/06 07:07:54;;;;;;;12.50;6.25;;;;;;;13.30;100.00;101235.81;6367210;28;20183;-71
2021/10/06 07:10:58;;;;;;;9.43;6.50;;;;;;;13.34;100.00;101242.53;6367079;28;20194;-72
2021/10/06 07:14:06;;;;;;;8.50;6.22;;;;;;;13.41;100.00;101248.78;6365720;28;20409;-72
2021/10/06 07:17:14;;;;;;;9.05;6.43;;;;;;;13.57;100.00;101242.72;6366832;28;20189;-72
2021/10/06 07:20:18;;;;;;;10.07;6.35;;;;;;;13.57;100.00;101242.72;6365518;28;20574;-72
2021/10/06 07:23:23;;;;;;;8.88;6.50;;;;;;;13.53;100.00;101236.00;6365567;28;20220;-72
2021/10/06 07:26:27;;;;;;;8.63;5.68;;;;;;;13.54;100.00;101226.72;6365543;28;20193;-72
2021/10/06 07:29:31;;;;;;;9.05;6.43;;;;;;;13.53;100.00;101236.00;6366506;28;20186;-71
2021/10/06 07:32:37;;;;;;;6.63;5.78;;;;;;;13.53;100.00;101246.16;6365483;28;20284;-71
2021/10/06 07:35:41;;;;;;;11.57;6.40;;;;;;;13.61;100.00;101251.34;6365845;28;20217;-71
2021/10/06 07:38:45;;;;;;;6.68;6.05;;;;;;;13.65;100.00;101250.66;6365190;28;20268;-71
2021/10/06 07:41:49;;;;;;;11.13;7.03;;;;;;;13.74;100.00;101243.78;6364864;28;20499;-72
2021/10/06 07:44:57;;;;;;;12.68;6.45;;;;;;;13.74;100.00;101254.75;6364977;28;20439;-73
2021/10/06 07:48:02;;;;;;;7.72;6.47;;;;;;;13.78;100.00;101256.00;6364752;28;20245;-72
2021/10/06 07:51:09;;;;;;;9.93;7.55;;;;;;;13.71;100.00;101260.69;6366182;28;20186;-72
2021/10/06 07:54:13;;;;;;;12.40;8.52;;;;;;;13.90;100.00;101252.47;6364778;28;20348;-72
2021/10/06 07:57:17;;;;;;;14.00;8.52;;;;;;;13.78;100.00;101266.97;6364553;28;20186;-72
2021/10/06 08:00:21;;;;;;;19.15;9.90;;;;;;;13.92;100.00;101272.31;6365512;28;20455;-71
2021/10/06 08:03:27;;;;;;;19.48;10.30;;;;;;;13.84;100.00;101275.34;6364682;28;20190;-72
2021/10/06 08:06:31;;;;;;;22.80;11.52;;;;;;;13.95;100.00;101266.34;6364830;28;20182;-71
2021/10/06 08:09:36;;;;;;;24.52;11.52;;;;;;;13.96;100.00;101276.25;6364396;28;20418;-71
2021/10/06 08:12:40;;;;;;;25.75;11.75;;;;;;;14.02;100.00;101270.69;6365408;28;20338;-71
2021/10/06 08:15:44;;;;;;;33.17;12.85;;;;;;;13.99;100.00;101267.59;6365089;28;20182;-72
2021/10/06 08:18:49;;;;;;;28.77;12.88;;;;;;;14.01;100.00;101277.25;6365230;28;20245;-72
2021/10/06 08:21:53;;;;;;;34.83;13.93;;;;;;;14.05;100.00;101289.44;6364040;28;20401;-72
2021/10/06 08:24:57;;;;;;;30.33;13.32;;;;;;;14.08;100.00;101283.50;6364101;28;20423;-72
2021/10/06 08:28:02;;;;;;;27.75;13.15;;;;;;;14.05;100.00;101294.09;6363912;28;20219;-71
2021/10/06 08:31:06;;;;;;;28.90;13.85;;;;;;;14.11;100.00;101279.47;6365328;28;20186;-72
2021/10/06 08:34:13;;;;;;;32.33;13.55;;;;;;;14.10;100.00;101303.31;6365060;28;20182;-72
2021/10/06 08:37:17;;;;;;;30.25;13.93;;;;;;;14.09;100.00;101285.19;6364116;28;20205;-72
2021/10/06 08:40:21;;;;;;;33.92;14.93;;;;;;;14.11;100.00;101287.69;6364372;28;20300;-71
2021/10/06 08:43:26;;;;;;;34.42;13.82;;;;;;;14.21;100.00;101297.06;6363680;28;20293;-71
2021/10/06 08:46:33;;;;;;;28.35;13.90;;;;;;;14.19;100.00;101309.34;6364601;28;20182;-72
2021/10/06 08:49:38;;;;;;;27.92;13.43;;;;;;;14.14;100.00;101314.69;6363868;28;20246;-71
2021/10/06 08:52:42;;;;;;;28.48;13.15;;;;;;;14.19;100.00;101317.56;6364586;28;20255;-71
2021/10/06 08:55:47;;;;;;;28.60;13.23;;;;;;;14.24;100.00;101321.31;6363308;28;20182;-71
2021/10/06 08:58:51;;;;;;;31.52;12.38;;;;;;;14.31;100.00;101321.25;6363247;28;20484;-71
2021/10/06 09:01:55;;;;;;;19.00;11.55;;;;;;;14.42;100.00;101328.72;6362439;28;20210;-71
2021/10/06 09:05:04;;;;;;;24.60;11.38;;;;;;;14.44;100.00;101343.06;6364270;28;20182;-71
2021/10/06 09:08:11;;;;;;;21.77;10.75;;;;;;;14.57;100.00;101337.41;6364026;28;20190;-71
2021/10/06 09:11:17;;;;;;;19.95;9.95;;;;;;;14.52;100.00;101345.50;6363947;28;20190;-71
2021/10/06 09:14:23;;;;;;;19.60;10.45;;;;;;;14.62;100.00;101340.28;6363894;28;20182;-72
2021/10/06 09:17:27;;;;;;;12.90;7.90;;;;;;;14.56;100.00;101335.72;6363793;28;20182;-72
2021/10/06 09:20:38;;;;;;;17.58;7.55;;;;;;;14.70;100.00;101344.63;6363978;28;20214;-72
2021/10/06 09:23:43;;;;;;;11.13;7.22;;;;;;;14.66;100.00;101363.44;6362597;28;20430;-72
2021/10/06 09:27:01;;;;;;;12.82;6.78;;;;;;;14.72;100.00;101361.69;6363638;28;20221;-71
2021/10/06 09:30:09;;;;;;;14.57;6.93;;;;;;;14.71;100.00;101366.38;6363397;28;20186;-71
2021/10/06 09:33:15;;;;;;;9.80;5.72;;;;;;;14.81;100.00;101377.66;6362997;28;20186;-71
2021/10/06 09:36:24;;;;;;;4.80;4.43;;;;;;;14.74;100.00;101379.63;6363662;28;20214;-71
2021/10/06 09:39:28;;;;;;;7.35;3.80;;;;;;;14.81;100.00;101380.41;6363515;28;20253;-71
2021/10/06 09:42:41;;;;;;;6.25;3.95;;;;;;;14.78;100.00;101389.09;6363388;28;20244;-71
2021/10/06 09:45:46;;;;;;;3.75;3.47;;;;;;;14.79;100.00;101385.25;6363119;28;20189;-71
2021/10/06 09:48:50;;;;;;;4.10;3.20;;;;;;;14.88;100.00;101394.03;6363321;28;20189;-72
2021/10/06 09:52:13;;;;;;;3.45;3.25;;;;;;;14.84;100.00;101399.13;6362418;28;20186;-72
2021/10/06 09:55:19;;;;;;;2.88;2.60;;;;;;;14.91;100.00;101394.41;6362921;28;20249;-71
2021/10/06 09:58:24;;;;;;;2.72;2.63;;;;;;;14.81;100.00;101398.78;6361820;28;20204;-71
2021/10/06 10:01:29;;;;;;;2.55;2.35;;;;;;;14.79;100.00;101407.22;6362048;28;20276;-71
2021/10/06 10:04:33;;;;;;;2.60;2.50;;;;;;;14.92;100.00;101420.81;6362526;28;20228;-71
2021/10/06 10:07:40;;;;;;;2.70;2.60;;;;;;;14.93;100.00;101403.25;6362204;28;20374;-72
2021/10/06 10:10:44;;;;;;;2.45;2.35;;;;;;;14.92;100.00;101418.06;6362328;28;20183;-72
2021/10/06 10:13:48;;;;;;;2.28;2.17;;;;;;;15.00;100.00;101425.97;6362245;28;20186;-72
2021/10/06 10:16:52;;;;;;;3.65;2.45;;;;;;;15.00;100.00;101447.13;6362912;28;20182;-72
2021/10/06 10:19:59;;;;;;;1.92;1.83;;;;;;;14.83;100.00;101452.41;6361973;28;20259;-72
2021/10/06 10:23:06;;;;;;;2.15;2.00;;;;;;;14.89;100.00;101442.44;6362580;28;20210;-72
2021/10/06 10:26:24;;;;;;;2.67;2.58;;;;;;;15.07;100.00;101458.88;6361444;28;20183;-72
2021/10/06 10:29:43;;;;;;;3.10;2.42;;;;;;;14.97;100.00;101464.91;6362570;28;20190;-72
2021/10/06 10:32:47;;;;;;;2.00;1.90;;;;;;;14.95;100.00;101461.56;6361331;28;20187;-72
2021/10/06 10:35:51;;;;;;;2.10;1.90;;;;;;;14.96;100.00;101474.25;6361278;28;20182;-71
2021/10/06 10:38:57;;;;;;;2.00;1.80;;;;;;;15.13;100.00;101468.94;6361422;28;20276;-72
2021/10/06 10:42:01;;;;;;;1.60;1.60;;;;;;;15.01;100.00;101477.13;6362378;28;20218;-72
2021/10/06 10:45:36;;;;;;;1.88;1.77;;;;;;;15.12;100.00;101485.69;6361395;28;20447;-72
2021/10/06 10:49:04;;;;;;;2.13;1.95;;;;;;;15.16;100.00;101484.13;6362269;28;20189;-72
2021/10/06 10:52:10;;;;;;;3.25;1.77;;;;;;;15.02;100.00;101489.78;6362910;28;20186;-72
2021/10/06 10:55:17;;;;;;;1.95;1.70;;;;;;;15.28;100.00;101487.78;6361248;28;20246;-71
2021/10/06 10:58:28;;;;;;;2.13;2.05;;;;;;;15.22;100.00;101496.94;6361128;28;20381;-72
2021/10/06 11:01:44;;;;;;;3.47;1.90;;;;;;;15.34;100.00;101508.84;6362077;28;20259;-72
2021/10/06 11:04:56;;;;;;;2.85;1.85;;;;;;;15.30;99.37;101518.63;6361252;28;20289;-72
2021/10/06 11:08:00;;;;;;;4.22;1.67;;;;;;;15.12;100.00;101526.91;6361021;28;20235;-72
2021/10/06 11:11:30;;;;;;;4.13;1.77;;;;;;;15.21;99.94;101515.34;6362311;28;20204;-70
2021/10/06 11:14:36;;;;;;;1.92;1.80;;;;;;;15.14;100.00;101519.25;6362248;28;20261;-71
2021/10/06 11:18:23;;;;;;;1.98;1.98;;;;;;;15.10;99.83;101537.28;6360851;28;20205;-71
2021/10/06 11:21:31;;;;;;;5.68;1.88;;;;;;;15.23;100.00;101534.38;6361351;28;20182;-71
2021/10/06 11:24:38;;;;;;;5.60;2.10;;;;;;;15.23;99.41;101534.38;6364851;28;20275;-71
2021/10/06 11:27:48;;;;;;;2.42;1.70;;;;;;;15.20;99.59;101532.91;6366440;28;20291;-72
2021/10/06 11:30:54;;;;;;;2.17;1.90;;;;;;;15.44;99.40;101539.38;6366432;28;20197;-72
2021/10/06 11:34:02;;;;;;;2.05;1.65;;;;;;;15.47;99.25;101541.69;6365272;28;20501;-72
2021/10/06 11:37:15;;;;;;;4.03;1.48;;;;;;;15.59;99.12;101545.31;6360152;28;20401;-70
2021/10/06 11:40:19;;;;;;;2.63;1.65;;;;;;;15.66;97.76;101551.59;6363701;28;20229;-71
2021/10/06 11:43:25;;;;;;;3.65;1.60;;;;;;;15.59;96.13;101557.16;6391304;27;20205;-70
2021/10/06 11:46:32;;;;;;;1.60;1.60;;;;;;;15.64;96.48;101559.22;6390539;27;20188;-71
2021/10/06 11:49:39;;;;;;;1.40;1.40;;;;;;;15.73;96.02;101563.34;6390492;27;20452;-70
2021/10/06 11:52:43;;;;;;;3.83;2.08;;;;;;;15.72;95.82;101556.16;6391236;27;20196;-71
2021/10/06 11:55:48;;;;;;;1.70;1.63;;;;;;;15.77;95.49;101564.53;6391717;27;20189;-71
2021/10/06 11:58:54;;;;;;;1.42;1.42;;;;;;;15.85;94.67;101566.97;6390284;27;20227;-71
2021/10/06 12:01:59;;;;;;;1.60;1.50;;;;;;;15.85;95.79;101571.63;6391689;27;20189;-71
2021/10/06 12:05:06;;;;;;;1.52;1.52;;;;;;;15.89;93.72;101570.94;6389960;27;20216;-71
2021/10/06 12:08:10;;;;;;;1.77;1.67;;;;;;;15.87;94.38;101575.81;6391012;27;20181;-71
2021/10/06 12:11:16;;;;;;;1.52;1.42;;;;;;;15.79;91.88;101584.44;6391082;27;20219;-71
2021/10/06 12:14:27;;;;;;;1.60;1.50;;;;;;;15.84;92.75;101570.81;6390903;27;20193;-71
2021/10/06 12:17:33;;;;;;;1.20;1.20;;;;;;;15.85;92.34;101572.47;6390759;27;20213;-71
2021/10/06 12:20:43;;;;;;;1.90;1.52;;;;;;;15.98;91.15;101583.28;6390699;27;20245;-71
2021/10/06 12:23:48;;;;;;;1.60;1.50;;;;;;;15.89;92.89;101579.19;6390949;27;20237;-71
2021/10/06 12:26:52;;;;;;;1.67;1.50;;;;;;;16.00;91.99;101592.13;6390704;27;20182;-72
2021/10/06 12:30:14;;;;;;;3.60;1.40;;;;;;;15.98;90.69;101593.44;6389449;27;20182;-71
2021/10/06 12:33:19;;;;;;;2.28;1.52;;;;;;;15.77;89.90;101603.06;6389319;27;20535;-71
2021/10/06 12:36:26;;;;;;;2.33;2.22;;;;;;;15.97;89.67;101592.59;6389353;27;20182;-71
2021/10/06 12:39:30;;;;;;;1.88;1.30;;;;;;;15.86;89.82;101623.69;6389435;27;20473;-71
2021/10/06 12:42:34;;;;;;;2.25;1.40;;;;;;;15.82;89.27;101611.44;6389088;27;20373;-71
2021/10/06 12:45:59;;;;;;;5.03;1.42;;;;;;;15.97;90.94;101628.38;6389000;27;20206;-71
2021/10/06 12:49:10;;;;;;;1.85;1.63;;;;;;;15.99;88.64;101623.50;6390412;27;20182;-71
2021/10/06 12:52:22;;;;;;;4.22;1.65;;;;;;;16.05;87.22;101639.06;6388967;27;20469;-71
2021/10/06 12:55:33;;;;;;;1.67;1.30;;;;;;;16.04;88.61;101637.41;6390167;27;20186;-70
2021/10/06 12:58:56;;;;;;;3.45;1.50;;;;;;;15.99;86.54;101651.03;6389589;27;20213;-71
2021/10/06 13:02:05;;;;;;;1.60;1.45;;;;;;;16.06;87.49;101657.28;6390290;27;20261;-71
2021/10/06 13:05:10;;;;;;;2.20;1.33;;;;;;;16.03;87.31;101668.75;6389442;27;20237;-71
2021/10/06 13:08:17;;;;;;;2.03;1.50;;;;;;;16.12;86.24;101680.28;6389733;27;20182;-71
2021/10/06 13:11:22;;;;;;;1.30;1.30;;;;;;;15.89;86.11;101672.75;6389449;27;20186;-72
2021/10/06 13:14:26;;;;;;;1.25;1.20;;;;;;;15.87;85.16;101680.38;6388416;27;20208;-72
2021/10/06 13:17:32;;;;;;;1.30;1.30;;;;;;;15.83;84.84;101694.84;6389301;27;20182;-71
2021/10/06 13:20:37;;;;;;;1.15;1.10;;;;;;;15.91;84.11;101687.13;6389459;27;20182;-71
2021/10/06 13:23:42;;;;;;;2.92;1.50;;;;;;;15.94;86.28;101686.66;6387965;27;20471;-70
2021/10/06 13:26:48;;;;;;;1.30;1.30;;;;;;;16.00;83.24;101682.97;6389527;27;20245;-71
2021/10/06 13:29:52;;;;;;;1.25;1.23;;;;;;;16.19;83.86;101683.78;6387976;27;20537;-70
2021/10/06 13:32:58;;;;;;;1.20;1.20;;;;;;;16.11;82.09;101682.19;6387708;27;20534;-71
2021/10/06 13:36:03;;;;;;;2.63;1.20;;;;;;;16.15;83.82;101694.41;6389216;27;20185;-71
2021/10/06 13:39:08;;;;;;;4.63;1.20;;;;;;;16.06;83.22;101694.97;6387925;27;20240;-70
2021/10/06 13:42:13;;;;;;;1.23;1.20;;;;;;;16.04;83.02;101714.47;6387723;27;20405;-72
2021/10/06 13:45:18;;;;;;;2.88;1.45;;;;;;;16.14;84.08;101709.25;6387788;27;20561;-73
2021/10/06 13:48:24;;;;;;;2.85;1.52;;;;;;;16.12;83.05;101705.91;6388675;27;20286;-72
2021/10/06 13:51:30;;;;;;;1.40;1.30;;;;;;;16.20;82.47;101713.81;6388855;27;20213;-72
2021/10/06 13:54:34;;;;;;;2.58;1.50;;;;;;;16.21;84.28;101722.91;6388749;27;20186;-72
2021/10/06 13:57:39;;;;;;;2.38;1.50;;;;;;;16.18;84.18;101735.25;6388330;27;20181;-72
2021/10/06 14:00:45;;;;;;;1.48;1.20;;;;;;;16.07;84.17;101727.78;6388260;27;20244;-72
2021/10/06 14:03:51;;;;;;;1.92;1.20;;;;;;;15.90;84.76;101729.47;6387067;27;20525;-72
2021/10/06 14:06:55;;;;;;;1.77;1.67;;;;;;;15.98;85.35;101731.91;6388346;27;20249;-72
2021/10/06 14:09:59;;;;;;;1.52;1.40;;;;;;;16.01;85.88;101749.88;6386985;27;20362;-73
2021/10/06 14:13:03;;;;;;;3.65;1.42;;;;;;;15.97;86.89;101735.72;6386984;27;20320;-73
2021/10/06 14:16:09;;;;;;;2.28;1.15;;;;;;;15.97;86.15;101746.72;6387180;27;20185;-73